Latest Coastal Weather Observations for Legendre Island

IDW60701

Issued at 6:03 am WST Saturday 19 August 2017 (issued every 10 minutes, with the page automatically refreshed every 10 minutes)

About coastal observations | Map of coastal stations | Coastal observations for WA | Marine services | Other Formats
Station Details ID: 004095 Name: LEGENDRE ISLAND Lat: -20.36 Lon: 116.84 Height: 29.0 m
Data from the previous 72 hours. | See also: Recent months at Legendre Island
Date/Time
WST
Temp
°C
Wind Pressure Rain since
9am
mm
Weather Cloud Vis
km
Sea
Height
m
Swell
Dir  Spd
kts
Gust
kts
hPa Trend Height
m
Period
s
Dir
19/06:00am 19.7 WSW 15 18 1015.7 - - - - - - - - -
19/05:30am 20.4 SW 15 18 1015.5 - - - - - - - - -
19/05:00am 21.5 WSW 12 15 1015.5 - - - - - - - - -
19/04:30am 21.4 SW 13 16 1015.2 - - - - - - - - -
19/04:00am 21.4 WSW 11 14 1015.1 - - - - - - - - -
19/03:30am 21.3 WSW 10 12 1015.2 - - - - - - - - -
19/03:00am 21.6 WSW 13 15 1015.2 - - - - - - - - -
19/02:30am 21.7 WSW 12 15 1015.3 - - - - - - - - -
19/02:00am 21.8 WSW 12 15 1015.4 - - - - - - - - -
19/01:30am 21.9 WSW 13 16 1015.5 - - - - - - - - -
19/01:00am 22.0 WSW 13 15 1015.8 - - - - - - - - -
19/12:30am 22.0 WSW 12 14 1015.8 - - - - - - - - -
19/12:00am 21.9 WSW 11 13 1016.1 - - - - - - - - -
 
Date/Time
WST
Temp
°C
Wind Pressure Rain since
9am
mm
Weather Cloud Vis
km
Sea
Height
m
Swell
Dir  Spd
kts
Gust
kts
hPa Trend Height
m
Period
s
Dir
18/11:30pm 21.9 W 11 13 1016.2 - - - - - - - - -
18/11:00pm 22.1 WSW 12 13 1016.3 - - - - - - - - -
18/10:30pm 22.0 WSW 10 12 1016.2 - - - - - - - - -
18/10:00pm 22.1 WSW 11 13 1016.1 - - - - - - - - -
18/09:30pm 22.2 W 10 11 1016.1 - - - - - - - - -
18/09:00pm 22.2 W 10 11 1015.9 - - - - - - - - -
18/08:30pm 22.4 W 9 11 1015.7 - - - - - - - - -
18/08:00pm 22.6 W 11 12 1015.4 - - - - - - - - -
18/07:30pm 22.4 W 9 10 1015.1 - - - - - - - - -
18/07:00pm 22.4 W 7 8 1014.6 - - - - - - - - -
18/06:30pm 22.7 W 6 7 1014.3 - - - - - - - - -
18/06:00pm 23.1 W 7 8 1014.0 - - - - - - - - -
18/05:30pm 24.1 WNW 5 6 1013.8 - - - - - - - - -
18/05:00pm 24.4 NW 5 7 1013.5 - - - - - - - - -
18/04:30pm 24.6 NNW 6 8 1013.6 - - - - - - - - -
18/04:00pm 24.6 N 5 6 1013.5 - - - - - - - - -
18/03:30pm 25.3 NNE 5 5 1013.4 - - - - - - - - -
18/03:00pm 24.9 N 5 6 1013.5 - - - - - - - - -
18/02:30pm 25.1 NNE 4 5 1013.8 - - - - - - - - -
18/02:00pm 25.1 NE 4 5 1013.9 - - - - - - - - -
18/01:30pm 25.4 NE 4 5 1014.1 - - - - - - - - -
18/01:00pm 25.0 ENE 5 6 1014.3 - - - - - - - - -
18/12:30pm 25.4 E 5 7 1014.6 - - - - - - - - -
18/12:00pm 25.1 E 6 7 1015.0 - - - - - - - - -
18/11:30am 25.4 E 6 8 1015.5 - - - - - - - - -
18/11:00am 25.2 E 7 8 1015.9 - - - - - - - - -
18/10:30am 25.2 E 9 10 1015.9 - - - - - - - - -
18/10:00am 24.6 ESE 9 11 1016.1 - - - - - - - - -
18/09:30am 24.1 ESE 9 10 1016.0 - - - - - - - - -
18/09:00am 23.6 ESE 9 11 1015.8 - - - - - - - - -
18/08:30am 22.7 ESE 8 10 1015.6 - - - - - - - - -
18/08:00am 21.2 SE 8 10 1015.4 - - - - - - - - -
18/07:30am 20.9 SE 10 11 1015.1 - - - - - - - - -
18/07:00am 20.6 SE 8 10 1014.8 - - - - - - - - -
18/06:30am 20.2 SSE 8 9 1014.5 - - - - - - - - -
18/06:00am 20.4 SE 7 8 1014.1 - - - - - - - - -
18/05:30am 22.0 NNW 1 2 1013.6 - - - - - - - - -
18/05:00am 21.4 NW 6 7 1013.1 - - - - - - - - -
18/04:30am 21.4 NNW 6 7 1012.9 - - - - - - - - -
18/04:00am 21.4 NW 6 7 1012.8 - - - - - - - - -
18/03:30am 21.6 NW 5 6 1012.7 - - - - - - - - -
18/03:00am 21.8 NW 4 5 1012.9 - - - - - - - - -
18/02:30am 21.8 NW 5 5 1013.0 - - - - - - - - -
18/02:00am 21.7 NW 5 6 1013.1 - - - - - - - - -
18/01:30am 22.0 NNW 5 6 1013.2 - - - - - - - - -
18/01:00am 22.5 N 5 7 1013.3 - - - - - - - - -
18/12:30am 22.6 N 5 6 1013.3 - - - - - - - - -
18/12:00am 22.7 N 6 7 1013.4 - - - - - - - - -
 
Date/Time
WST
Temp
°C
Wind Pressure Rain since
9am
mm
Weather Cloud Vis
km
Sea
Height
m
Swell
Dir  Spd
kts
Gust
kts
hPa Trend Height
m
Period
s
Dir
17/11:30pm 22.7 N 5 6 1013.5 - - - - - - - - -
17/11:00pm 22.7 N 6 7 1013.6 - - - - - - - - -
17/10:30pm 22.6 NNE 6 7 1013.7 - - - - - - - - -
17/10:00pm 22.5 NNE 6 7 1013.6 - - - - - - - - -
17/09:30pm 22.5 NNE 5 6 1013.7 - - - - - - - - -
17/09:00pm 22.7 NE 6 7 1013.8 - - - - - - - - -
17/08:30pm 22.7 NE 7 8 1013.8 - - - - - - - - -
17/08:00pm 22.6 NE 8 9 1013.5 - - - - - - - - -
17/07:30pm 22.8 NE 8 9 1013.1 - - - - - - - - -
17/07:00pm 22.7 NE 8 9 1012.8 - - - - - - - - -
17/06:30pm 22.8 ENE 8 9 1012.5 - - - - - - - - -
17/06:00pm 23.0 NE 9 10 1012.3 - - - - - - - - -
17/05:30pm 23.2 ENE 9 10 1012.3 - - - - - - - - -
17/05:00pm 23.6 ENE 9 11 1012.1 - - - - - - - - -
17/04:30pm 24.0 ENE 11 13 1012.1 - - - - - - - - -
17/04:00pm 24.1 ENE 12 14 1012.1 - - - - - - - - -
17/03:30pm 24.4 ENE 13 15 1012.1 - - - - - - - - -
17/03:00pm 24.7 ENE 14 16 1012.2 - - - - - - - - -
17/02:30pm 24.8 ENE 17 20 1012.2 - - - - - - - - -
17/02:00pm 24.6 ENE 19 23 1012.3 - - - - - - - - -
17/01:30pm 24.6 ENE 21 23 1012.4 - - - - - - - - -
17/01:00pm 25.0 ENE 18 21 1013.0 - - - - - - - - -
17/12:30pm 24.7 E 20 22 1013.2 - - - - - - - - -
17/12:00pm 24.6 E 20 23 1013.6 - - - - - - - - -
17/11:30am 24.4 E 22 25 1013.9 - - - - - - - - -
17/11:00am 24.1 E 23 27 1014.0 - - - - - - - - -
17/10:30am 24.1 E 22 26 1014.2 - - - - - - - - -
17/10:00am 24.0 ESE 20 24 1014.5 - - - - - - - - -
17/09:30am 23.8 ESE 19 22 1014.5 - - - - - - - - -
17/09:00am 23.1 ESE 21 23 1014.3 - - - - - - - - -
17/08:30am 22.9 ESE 20 24 1014.1 - - - - - - - - -
17/08:00am 22.8 ESE 21 24 1013.8 - - - - - - - - -
17/07:30am 22.5 ESE 21 24 1013.4 - - - - - - - - -
17/07:00am 22.1 ESE 21 25 1013.2 - - - - - - - - -
17/06:30am 21.9 ESE 19 23 1012.9 - - - - - - - - -
17/06:00am 21.2 SE 15 20 1012.8 - - - - - - - - -
17/05:30am 20.9 SE 11 15 1012.6 - - - - - - - - -
17/05:00am 20.9 SE 9 10 1012.4 - - - - - - - - -
17/04:30am 21.2 ESE 7 8 1012.2 - - - - - - - - -
17/04:00am 21.2 ESE 8 9 1012.0 - - - - - - - - -
17/03:30am 20.9 ESE 7 8 1012.0 - - - - - - - - -
17/03:00am 20.6 SE 6 7 1012.1 - - - - - - - - -
17/02:30am 19.9 SSE 7 8 1012.2 - - - - - - - - -
17/02:00am 20.1 SE 7 8 1012.3 - - - - - - - - -
17/01:30am 20.9 SSW 3 5 1012.2 - - - - - - - - -
17/01:00am 21.0 WSW 4 5 1012.4 - - - - - - - - -
17/12:30am 21.1 WSW 6 7 1012.4 - - - - - - - - -
17/12:00am 21.2 W 7 8 1012.6 - - - - - - - - -
 
Date/Time
WST
Temp
°C
Wind Pressure Rain since
9am
mm
Weather Cloud Vis
km
Sea
Height
m
Swell
Dir  Spd
kts
Gust
kts
hPa Trend Height
m
Period
s
Dir
16/11:30pm 21.4 WSW 8 9 1012.8 - - - - - - - - -
16/11:00pm 21.7 WSW 9 10 1013.1 - - - - - - - - -
16/10:30pm 21.7 WSW 9 11 1013.2 - - - - - - - - -
16/10:00pm 21.9 W 10 12 1013.4 - - - - - - - - -
16/09:30pm 21.8 W 10 11 1013.6 - - - - - - - - -
16/09:00pm 21.8 W 11 13 1013.7 - - - - - - - - -
16/08:30pm 21.5 W 10 11 1013.7 - - - - - - - - -
16/08:00pm 21.5 W 10 12 1013.4 - - - - - - - - -
16/07:30pm 21.6 W 9 11 1013.2 - - - - - - - - -
16/07:00pm 21.6 W 10 11 1012.9 - - - - - - - - -
16/06:30pm 21.7 W 9 11 1012.5 - - - - - - - - -
16/06:00pm 22.2 W 9 11 1012.3 - - - - - - - - -
16/05:30pm 23.1 W 9 11 1012.1 - - - - - - - - -
16/05:00pm 24.0 WNW 8 10 1012.0 - - - - - - - - -
16/04:30pm 24.6 WNW 8 9 1011.8 - - - - - - - - -
16/04:00pm 25.4 NW 6 9 1011.9 - - - - - - - - -
16/03:30pm 24.9 NNW 6 7 1012.0 - - - - - - - - -
16/03:00pm 25.1 N 5 6 1012.1 - - - - - - - - -
16/02:30pm 25.3 N 5 6 1012.3 - - - - - - - - -
16/02:00pm 25.2 N 4 5 1012.7 - - - - - - - - -
16/01:30pm 25.7 NNE 4 5 1013.0 - - - - - - - - -
16/01:00pm 25.8 NE 4 5 1013.5 - - - - - - - - -
16/12:30pm 25.1 NE 4 5 1014.1 - - - - - - - - -
16/12:00pm 25.2 ENE 5 6 1014.5 - - - - - - - - -
16/11:30am 25.1 ENE 4 6 1014.9 - - - - - - - - -
16/11:00am 24.7 ENE 5 7 1015.2 - - - - - - - - -
16/10:30am 25.3 E 7 9 1015.6 - - - - - - - - -
16/10:00am 25.0 ESE 7 9 1015.7 - - - - - - - - -
16/09:30am 25.1 ESE 8 11 1015.8 - - - - - - - - -
16/09:00am 25.1 SSE 6 9 1015.7 - - - - - - - - -
16/08:30am 23.1 SSW 7 8 1015.4 - - - - - - - - -
16/08:00am 22.4 SSW 7 9 1015.0 - - - - - - - - -
16/07:30am 21.5 SSW 9 11 1014.8 - - - - - - - - -
16/07:00am 20.6 SSW 10 11 1014.3 - - - - - - - - -
16/06:30am 20.3 SSW 11 12 1013.9 - - - - - - - - -

Other Formats:

Comma delimited format used in spreadsheet applications
http://www.bom.gov.au/fwo/IDW60701/IDW60701.94307.axf

JavaScript Object Notation format (JSON) in row-major order
http://www.bom.gov.au/fwo/IDW60701/IDW60701.94307.json